Time;durP1;ratioP1;P1;durP2;ratioP2;P2;SDS_P1;SDS_P2;PMS_P1;PMS_P2;Temp;Humidity;BMP_temperature;BMP_pressure;BME280_temperature;BME280_humidity;BME280_pressure;Samples;Min_cycle;Max_cycle;Signal;HPM_P1;HPM_P2
2022/08/18 00:01:15;;;;;;;14.10;10.52;;;16.30;78.20;;;;;;5076994;28;20082;-70
2022/08/18 00:03:51;;;;;;;17.15;12.35;;;16.30;77.70;;;;;;5058926;28;20029;-70
2022/08/18 00:06:17;;;;;;;16.35;11.93;;;16.20;77.40;;;;;;5058466;28;20037;-70
2022/08/18 00:08:43;;;;;;;14.82;11.25;;;16.30;77.20;;;;;;5056945;28;20076;-70
2022/08/18 00:11:12;;;;;;;12.57;9.68;;;16.20;77.20;;;;;;5064494;28;20067;-70
2022/08/18 00:13:37;;;;;;;12.00;10.07;;;16.20;76.80;;;;;;5078185;28;20032;-70
2022/08/18 00:16:03;;;;;;;12.70;10.88;;;16.10;77.10;;;;;;5072627;28;20043;-70
2022/08/18 00:18:29;;;;;;;12.98;10.77;;;16.10;76.80;;;;;;5070733;28;20028;-69
2022/08/18 00:20:54;;;;;;;13.02;10.65;;;16.10;76.50;;;;;;5074042;28;20035;-70
2022/08/18 00:23:20;;;;;;;12.55;10.15;;;16.10;76.50;;;;;;5057400;28;20024;-69
2022/08/18 00:25:49;;;;;;;12.95;9.80;;;16.10;76.10;;;;;;5057824;28;20029;-69
2022/08/18 00:28:15;;;;;;;20.10;11.02;;;16.00;76.90;;;;;;5063649;28;20028;-69
2022/08/18 00:30:40;;;;;;;11.02;9.38;;;16.00;76.80;;;;;;5078366;28;20028;-70
2022/08/18 00:33:06;;;;;;;11.32;9.10;;;16.00;76.50;;;;;;5075769;28;20040;-69
2022/08/18 00:35:35;;;;;;;12.60;9.68;;;15.90;76.70;;;;;;5077731;28;20024;-69
2022/08/18 00:38:03;;;;;;;12.63;10.00;;;15.90;76.70;;;;;;5062386;28;20020;-69
2022/08/18 00:40:39;;;;;;;14.20;9.80;;;15.90;76.50;;;;;;5066475;28;20048;-69
2022/08/18 00:43:07;;;;;;;13.88;10.90;;;15.90;76.70;;;;;;5057647;28;20453;-69
2022/08/18 00:45:37;;;;;;;13.50;10.70;;;15.80;76.60;;;;;;5057973;28;20033;-69
2022/08/18 00:48:05;;;;;;;13.43;10.90;;;15.80;76.60;;;;;;5067272;28;20418;-68
2022/08/18 00:50:45;;;;;;;13.23;9.77;;;15.70;76.60;;;;;;5057411;28;20102;-68
2022/08/18 00:53:13;;;;;;;10.93;9.75;;;15.70;76.60;;;;;;5059733;28;20021;-68
2022/08/18 00:55:44;;;;;;;17.13;11.00;;;15.70;76.50;;;;;;5076181;28;20360;-69
2022/08/18 00:58:15;;;;;;;15.82;10.65;;;15.70;76.30;;;;;;5070340;28;20021;-68
2022/08/18 01:00:43;;;;;;;11.35;8.45;;;15.70;76.40;;;;;;5057258;28;20020;-68
2022/08/18 01:03:13;;;;;;;13.27;10.30;;;15.60;76.40;;;;;;5058140;28;20440;-68
2022/08/18 01:05:46;;;;;;;13.63;9.73;;;15.60;76.40;;;;;;5064108;28;20086;-69
2022/08/18 01:08:14;;;;;;;9.60;8.33;;;15.50;76.30;;;;;;5057137;28;20041;-68
2022/08/18 01:10:44;;;;;;;11.05;8.98;;;15.50;76.00;;;;;;5055734;28;20029;-68
2022/08/18 01:13:10;;;;;;;15.32;11.40;;;15.50;76.30;;;;;;5057069;28;20093;-68
2022/08/18 01:15:36;;;;;;;11.52;8.68;;;15.50;76.20;;;;;;5057014;28;20068;-68
2022/08/18 01:24:04;;;;;;;12.85;10.35;;;15.50;75.90;;;;;;5055597;28;20345;-68
2022/08/18 01:26:36;;;;;;;10.48;9.38;;;15.40;75.80;;;;;;5074848;28;20034;-68
2022/08/18 01:29:10;;;;;;;13.57;11.60;;;15.40;75.90;;;;;;5076660;28;20021;-68
2022/08/18 01:31:42;;;;;;;10.20;8.65;;;15.40;76.10;;;;;;5076707;28;20029;-68
2022/08/18 01:34:10;;;;;;;13.27;10.45;;;15.30;75.80;;;;;;5058794;28;20040;-68
2022/08/18 01:36:43;;;;;;;10.02;8.85;;;15.20;75.80;;;;;;5076420;28;20093;-69
2022/08/18 01:39:11;;;;;;;12.15;8.63;;;15.30;75.50;;;;;;5061483;28;20020;-68
2022/08/18 01:41:38;;;;;;;11.55;8.55;;;15.20;75.60;;;;;;5076600;28;20029;-68
2022/08/18 01:44:04;;;;;;;14.93;10.63;;;15.20;76.10;;;;;;5060107;28;20037;-68
2022/08/18 01:46:32;;;;;;;13.77;11.18;;;15.00;76.30;;;;;;5075418;28;20056;-69
2022/08/18 01:48:59;;;;;;;10.07;8.25;;;15.00;76.30;;;;;;5061125;28;20033;-68
2022/08/18 01:51:27;;;;;;;12.38;8.60;;;15.00;75.90;;;;;;5056461;28;20025;-68
2022/08/18 01:53:57;;;;;;;15.77;13.30;;;15.00;75.90;;;;;;5058892;28;20047;-68
2022/08/18 01:56:26;;;;;;;14.07;10.32;;;15.00;75.90;;;;;;5074249;28;20225;-68
2022/08/18 01:58:53;;;;;;;15.85;12.63;;;15.10;75.60;;;;;;5062223;28;20445;-68
2022/08/18 02:01:21;;;;;;;16.00;12.48;;;15.00;75.90;;;;;;5056341;28;20029;-68
2022/08/18 02:03:51;;;;;;;13.38;11.85;;;15.00;75.60;;;;;;5055071;28;20060;-68
2022/08/18 02:06:18;;;;;;;14.27;11.07;;;15.00;75.50;;;;;;5072863;28;20376;-68
2022/08/18 02:08:45;;;;;;;12.02;10.68;;;15.00;75.40;;;;;;5064232;28;20123;-68
2022/08/18 02:11:11;;;;;;;13.95;11.40;;;15.00;75.40;;;;;;5067442;28;20109;-67
2022/08/18 02:13:37;;;;;;;11.63;10.13;;;15.00;75.60;;;;;;5066903;28;20361;-67
2022/08/18 02:16:03;;;;;;;14.68;13.00;;;15.00;75.10;;;;;;5070287;28;20025;-67
2022/08/18 02:18:32;;;;;;;19.52;15.75;;;15.10;75.00;;;;;;5068745;28;20021;-67
2022/08/18 02:21:04;;;;;;;17.33;14.50;;;15.20;75.00;;;;;;5055851;28;20025;-67
2022/08/18 02:23:30;;;;;;;12.20;10.95;;;15.20;74.70;;;;;;5055067;28;20036;-69
2022/08/18 02:26:02;;;;;;;16.75;13.80;;;15.30;74.50;;;;;;5067984;28;20036;-68
2022/08/18 02:28:27;;;;;;;13.30;10.48;;;15.30;74.80;;;;;;5070177;28;20056;-69
2022/08/18 02:30:53;;;;;;;17.23;12.52;;;15.30;74.60;;;;;;5055786;28;20473;-68
2022/08/18 02:33:18;;;;;;;15.30;11.95;;;15.30;74.50;;;;;;5056010;28;20063;-69
2022/08/18 02:35:52;;;;;;;18.88;15.10;;;15.40;74.40;;;;;;5055675;28;20025;-69
2022/08/18 02:38:21;;;;;;;17.30;13.32;;;15.40;74.50;;;;;;5055049;28;20029;-68
2022/08/18 02:40:54;;;;;;;18.63;15.02;;;15.50;74.40;;;;;;5056819;28;20115;-68
2022/08/18 02:43:19;;;;;;;17.40;14.63;;;15.50;74.50;;;;;;5055927;28;20040;-69
2022/08/18 02:45:45;;;;;;;18.17;13.55;;;15.40;74.60;;;;;;5055872;28;20309;-68
2022/08/18 02:48:10;;;;;;;14.82;13.10;;;15.40;74.30;;;;;;5055689;28;20025;-68
2022/08/18 02:50:44;;;;;;;15.70;13.23;;;15.50;74.40;;;;;;5056048;28;20645;-68
2022/08/18 02:53:12;;;;;;;15.82;13.93;;;15.50;74.50;;;;;;5059841;28;20378;-68
2022/08/18 02:55:37;;;;;;;18.38;14.80;;;15.60;74.40;;;;;;5066751;28;20029;-68
2022/08/18 02:58:03;;;;;;;17.77;15.50;;;15.50;74.40;;;;;;5059703;28;20017;-68
2022/08/18 03:00:32;;;;;;;14.90;13.35;;;15.60;74.40;;;;;;5059771;28;20291;-68
2022/08/18 03:02:57;;;;;;;19.52;15.90;;;15.60;74.50;;;;;;5059569;28;20418;-68
2022/08/18 03:05:23;;;;;;;13.98;12.45;;;15.60;74.30;;;;;;5059502;28;20106;-69
2022/08/18 03:07:49;;;;;;;16.30;13.55;;;15.60;74.20;;;;;;5059371;28;20033;-68
2022/08/18 03:10:18;;;;;;;15.18;13.40;;;15.70;74.20;;;;;;5069481;28;20032;-68
2022/08/18 03:12:44;;;;;;;17.83;15.25;;;15.70;74.10;;;;;;5061439;28;20029;-69
2022/08/18 03:15:11;;;;;;;17.88;14.65;;;15.70;74.20;;;;;;5059327;28;20024;-68
2022/08/18 03:17:40;;;;;;;14.73;12.00;;;15.70;74.80;;;;;;5059727;28;20017;-68
2022/08/18 03:20:06;;;;;;;18.33;14.75;;;15.60;74.50;;;;;;5059240;28;20021;-68
2022/08/18 03:22:32;;;;;;;21.65;15.88;;;15.60;74.60;;;;;;5066986;28;20085;-69
2022/08/18 03:24:58;;;;;;;15.55;13.85;;;15.70;74.30;;;;;;5072011;28;20056;-68
2022/08/18 03:27:25;;;;;;;15.85;13.45;;;15.60;74.60;;;;;;5079015;28;20048;-68
2022/08/18 03:29:50;;;;;;;16.60;14.80;;;15.70;74.20;;;;;;5073630;28;20477;-68
2022/08/18 03:32:17;;;;;;;18.85;14.77;;;15.70;74.30;;;;;;5058937;28;20067;-68
2022/08/18 03:34:42;;;;;;;17.27;13.52;;;15.80;74.60;;;;;;5059400;28;20318;-68
2022/08/18 03:37:09;;;;;;;14.60;13.10;;;15.70;74.60;;;;;;5058845;28;20017;-68
2022/08/18 03:39:37;;;;;;;15.10;13.50;;;15.70;74.70;;;;;;5062255;28;20017;-68
2022/08/18 03:42:03;;;;;;;17.63;14.10;;;15.70;74.60;;;;;;5078989;28;20306;-68
2022/08/18 03:44:36;;;;;;;17.13;14.50;;;15.70;74.70;;;;;;5069264;28;20036;-68
2022/08/18 03:47:02;;;;;;;18.05;15.65;;;15.70;75.00;;;;;;5058695;28;20029;-68
2022/08/18 03:49:28;;;;;;;17.45;13.57;;;15.60;75.40;;;;;;5064545;28;20020;-68
2022/08/18 03:51:54;;;;;;;15.10;12.70;;;15.60;75.00;;;;;;5078516;28;20078;-68
2022/08/18 03:54:20;;;;;;;14.75;12.25;;;15.60;75.30;;;;;;5069781;28;20036;-68
2022/08/18 03:56:47;;;;;;;14.05;12.35;;;15.60;75.30;;;;;;5058550;28;20021;-68
2022/08/18 03:59:18;;;;;;;14.88;13.35;;;15.60;75.60;;;;;;5059218;28;20078;-68
2022/08/18 04:01:46;;;;;;;15.18;11.30;;;15.60;75.70;;;;;;5064160;28;20024;-68
2022/08/18 04:04:15;;;;;;;16.42;14.02;;;15.60;75.40;;;;;;5065622;28;20108;-68
2022/08/18 04:06:50;;;;;;;16.13;13.82;;;15.60;75.50;;;;;;5058209;28;20087;-68
2022/08/18 04:09:17;;;;;;;15.27;11.73;;;15.70;75.40;;;;;;5057117;28;20047;-68
2022/08/18 04:11:43;;;;;;;13.85;11.45;;;15.70;75.40;;;;;;5058184;28;20124;-68
2022/08/18 04:14:11;;;;;;;14.80;13.23;;;15.70;75.10;;;;;;5060240;28;20069;-68
2022/08/18 04:16:37;;;;;;;15.30;13.13;;;15.70;75.50;;;;;;5078920;28;20314;-68
2022/08/18 04:19:04;;;;;;;15.43;12.45;;;15.80;75.40;;;;;;5067914;28;20029;-68
2022/08/18 04:21:36;;;;;;;17.98;14.05;;;15.80;75.40;;;;;;5057932;28;20025;-68
2022/08/18 04:24:04;;;;;;;14.63;12.57;;;15.80;75.60;;;;;;5056881;28;20033;-68
2022/08/18 04:26:35;;;;;;;15.15;12.95;;;15.80;75.80;;;;;;5057994;28;20506;-68
2022/08/18 04:29:02;;;;;;;13.45;11.32;;;15.70;76.00;;;;;;5059657;28;20032;-68
2022/08/18 04:31:29;;;;;;;14.63;12.43;;;15.80;75.80;;;;;;5064938;28;20024;-68
2022/08/18 04:33:59;;;;;;;13.10;11.68;;;15.80;75.80;;;;;;5060715;28;20100;-68
2022/08/18 04:36:26;;;;;;;15.15;13.20;;;15.80;75.50;;;;;;5057753;28;20363;-68
2022/08/18 04:38:52;;;;;;;14.75;11.80;;;15.90;75.80;;;;;;5073512;28;20421;-67
2022/08/18 04:41:18;;;;;;;13.82;12.38;;;15.90;75.80;;;;;;5077904;28;20031;-68
2022/08/18 04:43:44;;;;;;;14.15;11.70;;;15.90;75.70;;;;;;5062324;28;20028;-68
2022/08/18 04:46:10;;;;;;;14.45;12.82;;;16.00;75.70;;;;;;5061529;28;20033;-68
2022/08/18 04:48:40;;;;;;;16.88;12.82;;;16.00;76.10;;;;;;5067094;28;20121;-68
2022/08/18 04:51:17;;;;;;;15.20;13.32;;;16.10;76.20;;;;;;5077591;28;20032;-68
2022/08/18 04:53:44;;;;;;;16.23;13.38;;;16.20;76.10;;;;;;5061661;28;20060;-68
2022/08/18 04:56:14;;;;;;;15.70;13.60;;;16.10;77.00;;;;;;5057418;28;20112;-67
2022/08/18 04:58:40;;;;;;;14.90;12.40;;;16.20;76.70;;;;;;5057829;28;20090;-68
2022/08/18 05:01:08;;;;;;;12.25;10.77;;;16.20;76.90;;;;;;5057847;28;20021;-68
2022/08/18 05:03:35;;;;;;;13.40;11.35;;;16.30;76.40;;;;;;5068099;28;20056;-68
2022/08/18 05:06:04;;;;;;;13.27;10.70;;;16.40;76.50;;;;;;5077106;28;20025;-67
2022/08/18 05:08:30;;;;;;;12.75;10.13;;;16.50;76.30;;;;;;5067438;28;20048;-67
2022/08/18 05:10:56;;;;;;;12.35;9.23;;;16.70;76.80;;;;;;5077130;28;20460;-67
2022/08/18 05:13:24;;;;;;;10.27;7.88;;;16.70;79.10;;;;;;5076597;28;20025;-66
2022/08/18 05:15:58;;;;;;;8.30;7.45;;;16.50;80.80;;;;;;5076816;28;20019;-66
2022/08/18 05:18:24;;;;;;;10.85;8.70;;;16.60;81.30;;;;;;5076106;28;20044;-68
2022/08/18 05:20:51;;;;;;;11.25;9.32;;;16.60;83.10;;;;;;5063592;28;20035;-68
2022/08/18 05:23:21;;;;;;;10.13;8.98;;;16.60;84.40;;;;;;5066113;28;20032;-68
2022/08/18 05:25:47;;;;;;;11.00;9.50;;;16.50;84.40;;;;;;5078817;28;20027;-68
2022/08/18 05:28:13;;;;;;;12.93;9.63;;;16.50;84.60;;;;;;5076701;28;20029;-68
2022/08/18 05:30:40;;;;;;;14.95;9.63;;;16.50;83.90;;;;;;5073400;28;20356;-68
2022/08/18 05:33:09;;;;;;;17.95;10.77;;;16.50;84.40;;;;;;5076755;28;20025;-68
2022/08/18 05:35:45;;;;;;;13.73;10.65;;;16.40;84.30;;;;;;5062356;28;20100;-68
2022/08/18 05:39:05;;;;;;;15.35;9.65;;;16.40;84.00;;;;;;5056372;28;20100;-67
2022/08/18 05:41:38;;;;;;;15.10;10.25;;;16.40;84.70;;;;;;4995309;28;20431;-68
2022/08/18 05:44:11;;;;;;;13.35;9.50;;;16.40;84.90;;;;;;5055400;28;20037;-68
2022/08/18 05:46:53;;;;;;;12.87;9.90;;;16.40;85.40;;;;;;5056574;28;20322;-68
2022/08/18 05:49:21;;;;;;;14.43;10.77;;;16.50;86.70;;;;;;5068625;28;20024;-68
2022/08/18 05:52:11;;;;;;;16.05;10.55;;;16.50;86.50;;;;;;5076476;28;20038;-68
2022/08/18 05:57:50;;;;;;;15.88;10.23;;;16.80;86.60;;;;;;5063858;28;20119;-68
2022/08/18 06:00:18;;;;;;;16.10;10.95;;;16.90;88.20;;;;;;5056385;28;20051;-68
2022/08/18 06:03:12;;;;;;;14.20;8.32;;;17.00;89.30;;;;;;5056647;28;20036;-68
2022/08/18 06:05:48;;;;;;;15.13;9.98;;;17.00;89.80;;;;;;5054546;28;20041;-68
2022/08/18 06:08:17;;;;;;;13.35;8.98;;;17.10;90.70;;;;;;5056383;28;20445;-67
2022/08/18 06:10:48;;;;;;;15.35;10.30;;;17.20;90.70;;;;;;5069854;28;20033;-68
2022/08/18 06:13:14;;;;;;;12.18;9.23;;;17.30;92.00;;;;;;5065104;28;20073;-68
2022/08/18 06:15:58;;;;;;;12.20;8.88;;;17.40;92.30;;;;;;5073931;28;20028;-68
2022/08/18 06:18:45;;;;;;;13.02;8.90;;;17.60;93.00;;;;;;5061182;28;20029;-68
2022/08/18 06:21:21;;;;;;;11.73;8.75;;;17.90;94.10;;;;;;5056343;28;20017;-67
2022/08/18 06:24:04;;;;;;;13.48;8.43;;;18.00;95.20;;;;;;5054794;28;20368;-67
2022/08/18 06:26:39;;;;;;;12.98;9.00;;;18.10;95.10;;;;;;5074730;28;20060;-67
2022/08/18 06:29:30;;;;;;;13.70;10.05;;;18.20;96.60;;;;;;5072749;28;20308;-68
2022/08/18 06:32:21;;;;;;;14.20;9.32;;;18.10;96.90;;;;;;5066761;28;20024;-67
2022/08/18 06:35:09;;;;;;;10.38;8.32;;;18.10;96.10;;;;;;5035913;28;20068;-68
2022/08/18 06:40:35;;;;;;;12.13;8.57;;;18.30;95.70;;;;;;5072960;28;20120;-68
2022/08/18 06:43:01;;;;;;;11.80;7.68;;;18.60;96.00;;;;;;5069423;28;20043;-68
2022/08/18 06:45:36;;;;;;;13.60;9.02;;;18.80;96.60;;;;;;5075554;28;20025;-67
2022/08/18 06:48:24;;;;;;;10.45;8.05;;;18.90;98.00;;;;;;5070563;28;20101;-67
2022/08/18 06:50:57;;;;;;;12.93;9.35;;;19.10;97.70;;;;;;5075674;28;20024;-67
2022/08/18 06:53:48;;;;;;;12.60;9.50;;;19.10;98.00;;;;;;5054417;28;20056;-67
2022/08/18 06:56:28;;;;;;;13.73;10.43;;;19.20;98.00;;;;;;5055991;28;20021;-68
2022/08/18 06:59:12;;;;;;;13.07;10.63;;;18.90;98.00;;;;;;5056487;28;20029;-67
2022/08/18 07:01:39;;;;;;;12.65;9.90;;;18.40;98.00;;;;;;5056052;28;20021;-67
2022/08/18 07:04:04;;;;;;;13.07;10.60;;;18.10;97.70;;;;;;5054342;28;20090;-67
2022/08/18 07:06:30;;;;;;;14.88;11.45;;;17.90;97.10;;;;;;5061858;28;20024;-67
2022/08/18 07:09:17;;;;;;;13.80;10.50;;;17.70;95.40;;;;;;5054280;28;20441;-68
2022/08/18 07:12:03;;;;;;;16.13;11.70;;;17.70;94.60;;;;;;5055795;28;20036;-67
2022/08/18 07:14:29;;;;;;;15.30;13.40;;;17.70;94.40;;;;;;5072085;28;20032;-67
2022/08/18 07:17:13;;;;;;;15.18;12.25;;;17.70;94.20;;;;;;5060627;28;20025;-67
2022/08/18 07:19:40;;;;;;;13.55;11.45;;;17.60;93.00;;;;;;5055388;28;20032;-68
2022/08/18 07:22:18;;;;;;;13.65;10.95;;;17.60;93.70;;;;;;5061355;28;20054;-68
2022/08/18 07:24:51;;;;;;;14.70;10.77;;;17.60;94.90;;;;;;5074120;28;20033;-67
2022/08/18 07:27:37;;;;;;;14.82;11.10;;;17.60;94.30;;;;;;5063272;28;20020;-67
2022/08/18 07:30:06;;;;;;;12.85;11.43;;;17.70;94.70;;;;;;5074829;28;20040;-67
2022/08/18 07:32:54;;;;;;;12.73;10.73;;;17.80;95.70;;;;;;5056734;28;20078;-68
2022/08/18 07:35:48;;;;;;;15.93;11.60;;;17.70;95.30;;;;;;5060809;28;20398;-67
2022/08/18 07:38:41;;;;;;;14.63;11.45;;;17.70;94.30;;;;;;5069556;28;20040;-67
2022/08/18 07:41:31;;;;;;;18.35;12.32;;;17.70;93.80;;;;;;5079007;28;20412;-67
2022/08/18 07:44:07;;;;;;;16.30;12.43;;;17.70;93.10;;;;;;5078937;28;20032;-68
2022/08/18 07:46:35;;;;;;;13.45;9.18;;;17.90;93.20;;;;;;5076146;28;20055;-67
2022/08/18 07:49:02;;;;;;;12.95;10.50;;;18.20;95.80;;;;;;5058805;28;20029;-67
2022/08/18 07:51:48;;;;;;;12.95;10.07;;;18.80;97.90;;;;;;5059642;28;20033;-67
2022/08/18 07:54:24;;;;;;;11.70;9.43;;;19.50;98.00;;;;;;5057277;28;20032;-67
2022/08/18 07:57:06;;;;;;;9.75;8.30;;;19.90;98.00;;;;;;5058462;28;20373;-67
2022/08/18 07:59:53;;;;;;;11.65;7.95;;;20.20;97.60;;;;;;5059064;28;20096;-67
2022/08/18 08:02:34;;;;;;;10.27;7.60;;;21.20;96.90;;;;;;5061420;28;20601;-68
2022/08/18 08:05:09;;;;;;;11.20;7.97;;;22.10;94.30;;;;;;5074562;28;20317;-67
2022/08/18 08:07:44;;;;;;;12.73;7.47;;;22.50;93.10;;;;;;5058325;28;20096;-66
2022/08/18 08:10:29;;;;;;;9.52;6.78;;;22.80;92.40;;;;;;5057639;28;20112;-67
2022/08/18 08:13:02;;;;;;;7.35;5.63;;;23.50;91.50;;;;;;5058123;28;20025;-67
2022/08/18 08:15:51;;;;;;;8.98;6.15;;;24.50;86.80;;;;;;5058720;28;20021;-66
2022/08/18 08:18:16;;;;;;;7.07;5.20;;;24.90;85.30;;;;;;5069062;28;20024;-66
2022/08/18 08:20:59;;;;;;;7.03;5.28;;;25.20;84.80;;;;;;5060826;28;20063;-66
2022/08/18 08:23:32;;;;;;;7.30;4.93;;;25.40;83.80;;;;;;5056938;28;20414;-66
2022/08/18 08:26:25;;;;;;;7.40;5.05;;;25.50;84.30;;;;;;5058406;28;20033;-66
2022/08/18 08:29:27;;;;;;;8.80;5.60;;;26.10;82.00;;;;;;5058461;28;20028;-66
2022/08/18 08:32:32;;;;;;;7.43;5.63;;;25.80;81.30;;;;;;5057965;28;20095;-65
2022/08/18 08:35:09;;;;;;;6.85;5.35;;;24.10;84.60;;;;;;5035707;28;20048;-65
2022/08/18 08:37:53;;;;;;;7.68;5.97;;;23.80;86.60;;;;;;5098131;28;20077;-66
2022/08/18 08:40:21;;;;;;;7.40;5.97;;;23.30;86.00;;;;;;5056613;28;20025;-66
2022/08/18 08:43:03;;;;;;;8.13;5.55;;;22.70;87.80;;;;;;5057382;28;20433;-66
2022/08/18 08:45:39;;;;;;;7.13;5.15;;;22.90;88.90;;;;;;5057706;28;20025;-67
2022/08/18 08:48:22;;;;;;;9.00;4.75;;;23.80;85.70;;;;;;5057657;28;20021;-67
2022/08/18 08:50:58;;;;;;;7.47;5.32;;;24.20;85.70;;;;;;5073363;28;20028;-67
2022/08/18 08:53:46;;;;;;;8.02;5.13;;;24.20;83.50;;;;;;5071668;28;20414;-67
2022/08/18 08:56:15;;;;;;;8.93;5.32;;;24.40;82.40;;;;;;5057869;28;20025;-67
2022/08/18 08:59:23;;;;;;;6.85;5.13;;;24.20;82.90;;;;;;5057430;28;20025;-67
2022/08/18 09:02:03;;;;;;;6.15;4.97;;;24.60;84.10;;;;;;4996939;28;20061;-66
2022/08/18 09:04:50;;;;;;;7.85;5.40;;;25.60;81.90;;;;;;4996787;28;20045;-67
2022/08/18 09:07:24;;;;;;;7.28;4.70;;;25.70;78.70;;;;;;5041661;28;20326;-67
2022/08/18 09:10:06;;;;;;;7.85;4.65;;;25.90;79.00;;;;;;5066165;28;20070;-67
2022/08/18 09:13:01;;;;;;;7.40;4.80;;;26.20;77.90;;;;;;5066126;28;20112;-67
2022/08/18 09:15:42;;;;;;;9.10;5.38;;;26.10;78.20;;;;;;5003084;28;20770;-66
2022/08/18 09:18:20;;;;;;;6.50;5.00;;;26.10;77.30;;;;;;5057521;28;20033;-66
2022/08/18 09:21:25;;;;;;;7.07;5.72;;;26.50;76.40;;;;;;5057041;28;20310;-66
2022/08/18 09:23:57;;;;;;;;;;;26.20;76.20;;;;;;5057975;28;20056;-66
2022/08/18 09:26:48;;;;;;;6.93;5.03;;;25.90;79.10;;;;;;5076299;28;19904;-66
2022/08/18 09:29:56;;;;;;;9.52;5.40;;;26.00;78.80;;;;;;5056891;28;20029;-66
2022/08/18 09:32:22;;;;;;;6.72;4.63;;;25.80;78.60;;;;;;5057341;28;20052;-67
2022/08/18 09:35:06;;;;;;;7.07;4.85;;;25.50;77.90;;;;;;5056906;28;20433;-66
2022/08/18 09:41:30;;;;;;;9.15;5.57;;;25.40;79.60;;;;;;5057084;28;20439;-67
2022/08/18 09:43:36;;;;;;;7.28;5.22;;;25.90;77.50;;;;;;5057314;28;20079;-67
2022/08/18 09:46:05;;;;;;;7.10;4.88;;;25.80;77.60;;;;;;5057631;28;20325;-66
2022/08/18 09:48:35;;;;;;;7.47;4.68;;;25.70;79.00;;;;;;5057073;28;20036;-66
2022/08/18 09:51:31;;;;;;;8.98;4.53;;;25.50;78.90;;;;;;5056164;28;20108;-66
2022/08/18 09:54:12;;;;;;;6.65;4.45;;;25.60;78.10;;;;;;5055433;28;20040;-67
2022/08/18 09:56:49;;;;;;;8.30;4.47;;;25.70;77.70;;;;;;5056446;28;20096;-67
2022/08/18 09:59:33;;;;;;;9.93;4.68;;;26.20;77.50;;;;;;5076020;28;20358;-67
2022/08/18 10:02:13;;;;;;;6.20;4.28;;;26.50;77.10;;;;;;5075439;28;20028;-67
2022/08/18 10:04:50;;;;;;;6.93;4.80;;;26.60;74.80;;;;;;5056251;28;20421;-66
2022/08/18 10:07:26;;;;;;;9.95;5.50;;;26.50;76.20;;;;;;5056804;28;20045;-66
2022/08/18 10:10:29;;;;;;;8.57;4.70;;;26.50;75.00;;;;;;5054837;28;20049;-67
2022/08/18 10:13:17;;;;;;;6.72;4.65;;;26.30;77.00;;;;;;5074258;28;20037;-66
2022/08/18 10:16:04;;;;;;;6.97;4.63;;;26.80;74.80;;;;;;5047928;28;20037;-66
2022/08/18 10:18:41;;;;;;;9.05;4.60;;;26.90;75.40;;;;;;5075148;28;20016;-66
2022/08/18 10:21:17;;;;;;;6.68;4.60;;;27.70;73.60;;;;;;5075066;28;20044;-66
2022/08/18 10:23:57;;;;;;;7.55;5.30;;;27.70;72.80;;;;;;5074915;28;20024;-66
2022/08/18 10:26:32;;;;;;;6.90;5.30;;;27.80;73.80;;;;;;5075739;28;20056;-67
2022/08/18 10:29:22;;;;;;;6.80;4.43;;;27.80;73.10;;;;;;5075847;28;20028;-66
2022/08/18 10:32:00;;;;;;;6.15;4.40;;;28.30;72.50;;;;;;5076044;28;20417;-66
2022/08/18 10:34:45;;;;;;;6.68;4.68;;;28.40;69.10;;;;;;5075924;28;20032;-66
2022/08/18 10:37:47;;;;;;;6.32;4.63;;;27.70;72.40;;;;;;5075995;28;20042;-66
2022/08/18 10:40:18;;;;;;;7.35;4.28;;;27.40;73.20;;;;;;5065638;28;20032;-66
2022/08/18 10:43:07;;;;;;;7.15;4.45;;;27.50;70.80;;;;;;5074912;28;20024;-66
2022/08/18 10:45:44;;;;;;;7.18;5.10;;;27.50;70.80;;;;;;5075855;28;20021;-66
2022/08/18 10:48:24;;;;;;;9.45;4.88;;;27.90;71.50;;;;;;5075923;28;20044;-66
2022/08/18 10:50:58;;;;;;;7.13;4.75;;;27.90;72.00;;;;;;5075738;28;20024;-66
2022/08/18 10:53:34;;;;;;;6.20;4.43;;;27.80;70.80;;;;;;5074324;28;20067;-66
2022/08/18 10:56:02;;;;;;;7.68;4.93;;;28.50;69.80;;;;;;5074493;28;20025;-67
2022/08/18 10:58:52;;;;;;;6.60;4.30;;;29.20;68.70;;;;;;5075526;28;20025;-66
2022/08/18 11:01:55;;;;;;;6.32;4.40;;;29.40;67.30;;;;;;5075634;28;20432;-66
2022/08/18 11:04:41;;;;;;;7.85;5.20;;;29.30;67.70;;;;;;5075546;28;20036;-66
2022/08/18 11:07:15;;;;;;;7.03;5.22;;;29.40;66.50;;;;;;5075530;28;20028;-67
2022/08/18 11:09:42;;;;;;;6.90;4.75;;;29.00;68.40;;;;;;5074638;28;20059;-66
2022/08/18 11:12:12;;;;;;;7.93;5.70;;;29.00;69.70;;;;;;5075454;28;20110;-66
2022/08/18 11:14:56;;;;;;;8.57;5.13;;;28.30;69.60;;;;;;5074669;28;20057;-66
2022/08/18 11:17:50;;;;;;;6.28;4.82;;;27.50;71.60;;;;;;5059523;28;20090;-66
2022/08/18 11:20:19;;;;;;;6.90;5.35;;;27.30;72.60;;;;;;5059367;28;20029;-67
2022/08/18 11:22:54;;;;;;;7.10;5.07;;;27.50;69.90;;;;;;5059569;28;20111;-66
2022/08/18 11:25:28;;;;;;;10.60;5.90;;;27.20;71.30;;;;;;5058542;28;20104;-65
2022/08/18 11:27:55;;;;;;;11.00;5.72;;;26.90;72.30;;;;;;5069144;28;20021;-64
2022/08/18 11:30:24;;;;;;;6.85;5.15;;;26.40;74.30;;;;;;5059024;28;20082;-65
2022/08/18 11:32:50;;;;;;;8.30;5.20;;;26.40;74.50;;;;;;5064755;28;20029;-65
2022/08/18 11:35:19;;;;;;;10.85;6.20;;;26.40;74.20;;;;;;5058987;28;20051;-67
2022/08/18 11:37:56;;;;;;;7.18;5.40;;;26.30;73.90;;;;;;5065274;28;20302;-67
2022/08/18 11:40:35;;;;;;;11.55;6.53;;;26.40;74.20;;;;;;5074044;28;20028;-66
2022/08/18 11:43:07;;;;;;;8.75;6.20;;;26.30;74.80;;;;;;5075732;28;20412;-66
2022/08/18 11:45:45;;;;;;;8.55;6.10;;;26.10;76.00;;;;;;5062778;28;20028;-66
2022/08/18 11:48:14;;;;;;;9.02;6.35;;;26.10;76.50;;;;;;5074843;28;20017;-66
2022/08/18 11:50:56;;;;;;;8.38;5.80;;;25.80;76.70;;;;;;5058868;28;20104;-66
2022/08/18 11:53:35;;;;;;;9.18;6.63;;;25.70;76.90;;;;;;5068566;28;20111;-66
2022/08/18 11:56:15;;;;;;;8.68;6.43;;;25.40;77.10;;;;;;5078529;28;20109;-66
2022/08/18 11:58:45;;;;;;;8.15;6.45;;;25.60;77.60;;;;;;5071620;28;20051;-66
2022/08/18 12:01:47;;;;;;;8.40;6.88;;;25.70;77.70;;;;;;5058631;28;20049;-66
2022/08/18 12:04:15;;;;;;;10.70;7.25;;;25.90;76.40;;;;;;5059013;28;20033;-66
2022/08/18 12:06:53;;;;;;;9.10;7.28;;;26.00;76.40;;;;;;5069263;28;20413;-66
2022/08/18 12:09:27;;;;;;;9.35;6.55;;;26.10;77.10;;;;;;5065869;28;20057;-67
2022/08/18 12:11:55;;;;;;;8.93;7.07;;;26.40;75.70;;;;;;5066190;28;20037;-66
2022/08/18 12:14:27;;;;;;;10.60;8.18;;;26.70;75.20;;;;;;5074926;28;20372;-66
2022/08/18 12:16:54;;;;;;;10.95;7.75;;;26.70;74.10;;;;;;5077241;28;20418;-66
2022/08/18 12:19:21;;;;;;;9.25;7.43;;;26.40;76.70;;;;;;5078273;28;20406;-66
2022/08/18 12:21:53;;;;;;;9.65;7.20;;;26.30;76.80;;;;;;5073014;28;20025;-66
2022/08/18 12:24:28;;;;;;;9.30;7.15;;;26.10;76.40;;;;;;5055551;28;20433;-66
2022/08/18 12:26:54;;;;;;;10.00;6.78;;;26.40;75.30;;;;;;5058349;28;20051;-66
2022/08/18 12:29:20;;;;;;;10.75;7.88;;;26.40;75.60;;;;;;5058180;28;20025;-66
2022/08/18 12:31:51;;;;;;;10.77;7.00;;;26.70;74.90;;;;;;5062716;28;20071;-66
2022/08/18 12:34:22;;;;;;;10.23;7.60;;;27.00;74.10;;;;;;5077887;28;20021;-66
2022/08/18 12:36:49;;;;;;;10.63;6.80;;;27.20;73.90;;;;;;5074056;28;20441;-66
2022/08/18 12:39:15;;;;;;;7.72;6.45;;;27.50;72.50;;;;;;5056771;28;20025;-67
2022/08/18 12:41:41;;;;;;;11.77;7.07;;;27.20;72.90;;;;;;5058660;28;20402;-67
2022/08/18 12:44:06;;;;;;;11.82;7.30;;;27.20;73.50;;;;;;5057590;28;20025;-66
2022/08/18 12:46:32;;;;;;;10.80;9.43;;;27.20;70.30;;;;;;5057850;28;20418;-67
2022/08/18 12:48:58;;;;;;;10.40;8.02;;;27.20;72.20;;;;;;5072126;28;20028;-66
2022/08/18 12:51:23;;;;;;;9.15;7.00;;;27.20;73.00;;;;;;5074694;28;20025;-67
2022/08/18 12:53:49;;;;;;;8.38;6.60;;;27.10;73.20;;;;;;5071371;28;20435;-66
2022/08/18 12:56:22;;;;;;;15.25;9.77;;;27.40;71.70;;;;;;5076225;28;20135;-67
2022/08/18 12:58:48;;;;;;;11.70;9.32;;;27.50;72.10;;;;;;5057559;28;20024;-66
2022/08/18 13:01:16;;;;;;;11.48;7.68;;;27.90;72.60;;;;;;5061553;28;20055;-67
2022/08/18 13:03:44;;;;;;;9.23;7.07;;;27.80;71.70;;;;;;5060838;28;20053;-66
2022/08/18 13:06:10;;;;;;;9.13;6.63;;;27.20;71.00;;;;;;5057094;28;20036;-67
2022/08/18 13:08:36;;;;;;;9.80;7.72;;;26.40;72.80;;;;;;5069896;28;20044;-67
2022/08/18 13:11:09;;;;;;;10.85;8.20;;;26.20;72.90;;;;;;5069289;28;20104;-66
2022/08/18 13:13:36;;;;;;;12.10;7.93;;;25.90;75.20;;;;;;5058562;28;20036;-67
2022/08/18 13:16:04;;;;;;;9.13;7.13;;;25.20;76.80;;;;;;5062907;28;20027;-65
2022/08/18 13:18:30;;;;;;;10.45;7.78;;;25.00;78.70;;;;;;5077386;28;20047;-65
2022/08/18 13:20:57;;;;;;;11.63;8.40;;;25.20;78.80;;;;;;5084945;28;20033;-65
2022/08/18 13:23:23;;;;;;;11.27;8.20;;;25.30;78.10;;;;;;5072037;28;20028;-67